Latest Coastal Weather Observations for Moruya Airport

IDN60701

Issued at 8:41 am EST Tuesday 30 May 2017 (issued every 10 minutes, with the page automatically refreshed every 10 minutes)

About coastal observations | Map of coastal stations | Coastal observations for NSW | Marine services | Other Formats
Station Details ID: 069148 Name: MORUYA AIRPORT AWS Lat: -35.90 Lon: 150.14 Height: 4.0 m
Data from the previous 72 hours. | See also: Recent months at Moruya Airport
Date/Time
EST
Temp
°C
Wind Pressure Rain since
9am
mm
Weather Cloud Vis
km
Sea
Height
m
Swell
Dir  Spd
kts
Gust
kts
hPa Trend Height
m
Period
s
Dir
30/08:30am 6.4 NNW 2 4 1021.0 - 0.0 - - 10 - - - -
30/08:00am 3.4 NW 2 4 1021.1 - 0.0 - - 10 - - - -
30/07:30am 1.6 NW 4 4 1020.9 - 0.0 - - 10 - - - -
30/07:00am 1.2 WNW 1 4 1020.9 - 0.0 - - 10 - - - -
30/06:30am 1.6 W 3 5 1020.8 - 0.0 - - 10 - - - -
30/06:00am 1.8 W 5 7 1020.6 - 0.0 - - 10 - - - -
30/05:30am 1.5 WSW 1 5 1020.6 - 0.0 - - 10 - - - -
30/05:00am 2.1 WSW 5 6 1020.4 - 0.0 - - 10 - - - -
30/04:30am 1.8 SW 1 5 1020.6 - 0.0 - - 10 - - - -
30/04:00am 2.0 CALM 0 0 1020.6 - 0.0 - - 10 - - - -
30/03:30am 1.6 CALM 0 0 1020.6 - 0.0 - - 10 - - - -
30/03:00am 2.3 WNW 3 5 1020.7 - 0.0 - - 10 - - - -
30/02:30am 2.9 CALM 0 0 1020.7 - 0.0 - - 10 - - - -
30/02:00am 2.9 NW 1 5 1020.8 - 0.0 - - 10 - - - -
30/01:30am 4.0 NW 3 4 1020.7 - 0.0 - - 10 - - - -
30/01:00am 6.8 NW 4 6 1020.4 - 0.0 - - 10 - - - -
30/12:30am 6.8 W 4 7 1020.5 - 0.0 - - 10 - - - -
30/12:00am 6.4 W 4 6 1020.7 - 0.0 - - 10 - - - -
 
Date/Time
EST
Temp
°C
Wind Pressure Rain since
9am
mm
Weather Cloud Vis
km
Sea
Height
m
Swell
Dir  Spd
kts
Gust
kts
hPa Trend Height
m
Period
s
Dir
29/11:30pm 4.8 W 1 5 1020.7 - 0.0 - - 10 - - - -
29/11:00pm 4.7 NNW 3 4 1020.9 - 0.0 - - 10 - - - -
29/10:30pm 6.3 WSW 3 5 1020.9 - 0.0 - - 10 - - - -
29/10:00pm 6.3 W 3 5 1020.9 - 0.0 - - 10 - - - -
29/09:30pm 6.3 WSW 2 4 1021.1 - 0.0 - - 10 - - - -
29/09:00pm 7.2 SW 3 4 1021.0 - 0.0 - - 10 - - - -
29/08:30pm 8.5 WSW 5 7 1020.8 - 0.0 - - 10 - - - -
29/08:00pm 9.2 W 5 7 1020.5 - 0.0 - - 10 - - - -
29/07:30pm 7.7 W 5 6 1020.3 - 0.0 - - 10 - - - -
29/07:00pm 7.0 W 5 5 1020.0 - 0.0 - - 10 - - - -
29/06:30pm 6.9 WNW 3 4 1019.5 - 0.0 - - 10 - - - -
29/06:00pm 8.0 WSW 3 4 1019.0 - 0.0 - - 10 - - - -
29/05:30pm 8.7 NNW 3 4 1018.6 - 0.0 - - 10 - - - -
29/05:00pm 9.9 NNW 3 4 1018.3 - 0.0 - - 10 - - - -
29/04:30pm 12.6 N 4 5 1017.9 - 0.0 - - 10 - - - -
29/04:00pm 15.5 NNE 4 6 1017.7 - 0.0 - - 10 - - - -
29/03:30pm 16.7 NE 5 7 1017.5 - 0.0 - - 10 - - - -
29/03:00pm 17.0 NE 6 7 1017.2 - 0.0 - - 10 - - - -
29/02:30pm 17.2 ENE 5 6 1017.0 - 0.0 - - 10 - - - -
29/02:00pm 17.2 ENE 6 8 1017.0 - 0.0 - - 10 - - - -
29/01:30pm 16.7 E 7 9 1016.9 - 0.0 - - 10 - - - -
29/01:00pm 16.5 ENE 7 9 1016.8 - 0.0 - - 10 - - - -
29/12:30pm 17.0 SW 3 7 1016.7 - 0.0 - - 10 - - - -
29/12:00pm 16.3 W 6 9 1016.7 - 0.0 - - 10 - - - -
29/11:30am 15.5 SW 5 7 1017.0 - 0.0 - - 10 - - - -
29/11:00am 14.9 W 4 7 1017.1 - 0.0 - - 10 - - - -
29/10:30am 14.7 WNW 5 7 1017.1 - 0.0 - - 10 - - - -
29/10:00am 14.4 NW 3 7 1017.1 - 0.0 - - 10 - - - -
29/09:30am 13.5 NW 3 5 1016.9 - 0.0 - - 10 - - - -
29/09:00am 11.5 WNW 3 5 1016.4 - 0.0 - - 10 - - - -
29/08:30am 8.9 WNW 1 4 1016.0 - 0.0 - - 10 - - - -
29/08:00am 6.0 WNW 2 4 1015.7 - 0.0 - - 10 - - - -
29/07:30am 3.7 CALM 0 4 1015.3 - 0.0 - - 10 - - - -
29/07:00am 3.7 CALM 0 0 1014.6 - 0.0 - - 10 - - - -
29/06:30am 3.0 WNW 1 4 1014.2 - 0.0 - - 10 - - - -
29/06:00am 4.6 WSW 3 5 1013.7 - 0.0 - - 10 - - - -
29/05:30am 6.2 WSW 5 7 1013.3 - 0.0 - - 10 - - - -
29/05:00am 7.5 SSW 1 4 1013.0 - 0.0 - - 10 - - - -
29/04:30am 8.0 WNW 6 10 1012.3 - 0.0 - - 10 - - - -
29/04:00am 6.9 W 4 5 1012.4 - 0.0 - Partly cloudy 10 - - - -
29/03:30am 7.0 SW 2 6 1011.9 - 0.0 - - 10 - - - -
29/03:00am 9.8 W 4 6 1011.8 - 0.0 - - 10 - - - -
29/02:30am 7.9 NW 6 8 1011.8 - 0.0 - - 10 - - - -
29/02:00am 6.8 NNW 5 6 1011.7 - 0.0 - - 10 - - - -
29/01:30am 8.3 N 6 8 1011.4 - 0.0 - - 10 - - - -
29/01:00am 10.1 NW 4 7 1011.3 - 0.0 - - 10 - - - -
29/12:30am 9.9 WNW 5 7 1011.2 - 0.0 - - 10 - - - -
29/12:00am 6.8 WNW 5 7 1011.2 - 0.0 - - 10 - - - -
 
Date/Time
EST
Temp
°C
Wind Pressure Rain since
9am
mm
Weather Cloud Vis
km
Sea
Height
m
Swell
Dir  Spd
kts
Gust
kts
hPa Trend Height
m
Period
s
Dir
28/11:30pm 6.6 NW 4 5 1011.2 - 0.0 - - 10 - - - -
28/11:00pm 6.8 WNW 1 4 1011.2 - 0.0 - - 10 - - - -
28/10:30pm 9.5 N 1 5 1010.8 - 0.0 - - 10 - - - -
28/10:00pm 7.8 WNW 3 4 1010.5 - 0.0 - - 10 - - - -
28/09:54pm 7.6 WNW 3 5 1010.5 - 0.0 - - 10 - - - -
28/09:30pm 13.1 W 7 13 1010.5 - 0.0 - - 10 - - - -
28/09:00pm 10.5 WNW 5 10 1010.3 - 0.0 - - 10 - - - -
28/08:30pm 9.7 WNW 5 7 1010.1 - 0.0 - - 10 - - - -
28/08:00pm 9.9 WNW 5 6 1009.8 - 0.0 - - 10 - - - -
28/07:30pm 10.6 WNW 4 6 1009.5 - 0.0 - - 10 - - - -
28/07:00pm 13.4 WNW 4 5 1009.2 - 0.0 - - 10 - - - -
28/06:30pm 13.6 WNW 3 6 1008.6 - 0.0 - Partly cloudy 10 - - - -
28/06:00pm 14.8 WSW 5 8 1008.0 - 0.0 - Mostly cloudy 10 - - - -
28/05:30pm 15.8 N 7 11 1007.5 - 0.0 - - 10 - - - -
28/05:00pm 16.4 N 8 10 1007.2 - 0.0 - - 10 - - - -
28/04:30pm 17.4 N 7 13 1006.6 - 0.0 - - 10 - - - -
28/04:00pm 18.5 NW 11 19 1006.4 - 0.0 - Partly cloudy 10 - - - -
28/03:30pm 18.5 NNW 10 17 1006.2 - 0.0 - Partly cloudy 10 - - - -
28/03:00pm 19.5 NNW 11 18 1006.2 - 0.0 - - 10 - - - -
28/02:30pm 20.4 NNW 7 15 1006.0 - 0.0 - - 10 - - - -
28/02:00pm 20.0 N 8 13 1006.3 - 0.0 - Partly cloudy 10 - - - -
28/01:30pm 20.1 N 9 15 1006.6 - 0.0 - Partly cloudy 10 - - - -
28/01:00pm 19.2 N 11 18 1007.1 - 0.0 - Partly cloudy 10 - - - -
28/12:30pm 20.5 NW 9 17 1007.2 - 0.0 - - 10 - - - -
28/12:00pm 19.8 NW 8 16 1007.5 - 0.0 - Mostly clear 10 - - - -
28/11:30am 18.8 NW 10 18 1008.1 - 0.0 - Partly cloudy 10 - - - -
28/11:00am 19.8 NW 11 23 1008.3 - 0.0 - - 10 - - - -
28/10:30am 19.5 NNW 11 21 1008.9 - 0.0 - - 10 - - - -
28/10:00am 18.7 N 9 14 1009.0 - 0.0 - - 10 - - - -
28/09:30am 17.3 N 8 13 1008.8 - 0.0 - - 10 - - - -
28/09:00am 15.6 N 7 8 1009.1 - 0.0 - - 10 - - - -
28/08:30am 13.7 N 5 7 1009.7 - 0.0 - - 10 - - - -
28/08:00am 12.5 N 5 7 1009.9 - 0.0 - - 10 - - - -
28/07:30am 10.8 NNE 4 6 1010.1 - 0.0 - - 10 - - - -
28/07:00am 9.4 N 3 6 1010.0 - 0.0 - - 10 - - - -
28/06:30am 8.9 NNW 4 6 1010.2 - 0.0 - - 10 - - - -
28/06:00am 9.3 NNW 5 7 1010.2 - 0.0 - - 10 - - - -
28/05:30am 7.7 NNW 4 6 1010.3 - 0.0 - - 10 - - - -
28/05:00am 8.1 N 4 5 1010.4 - 0.0 - - 10 - - - -
28/04:30am 8.6 N 5 7 1010.5 - 0.0 - - 10 - - - -
28/04:00am 8.5 NW 5 6 1010.8 - 0.0 - - 10 - - - -
28/03:30am 8.3 NW 5 6 1011.1 - 0.0 - - 10 - - - -
28/03:00am 8.9 NNW 5 6 1011.4 - 0.0 - Partly cloudy 10 - - - -
28/02:30am 7.9 WNW 4 5 1011.8 - 0.0 - - 10 - - - -
28/02:00am 8.3 CALM 0 0 1012.2 - 0.0 - - 10 - - - -
28/01:30am 9.4 NW 3 7 1012.5 - 0.0 - - 10 - - - -
28/01:00am 10.0 NNW 7 9 1012.9 - 0.0 - - 10 - - - -
28/12:30am 9.8 NNW 6 8 1013.3 - 0.0 - - 10 - - - -
28/12:00am 9.4 NNW 5 7 1013.7 - 0.0 - - 10 - - - -
 
Date/Time
EST
Temp
°C
Wind Pressure Rain since
9am
mm
Weather Cloud Vis
km
Sea
Height
m
Swell
Dir  Spd
kts
Gust
kts
hPa Trend Height
m
Period
s
Dir
27/11:30pm 9.7 NNW 6 7 1014.1 - 0.0 - - 10 - - - -
27/11:04pm 9.3 NW 6 7 1014.3 - 0.0 - - 10 - - - -
27/11:00pm 9.7 NW 6 7 1014.4 - 0.0 - - 10 - - - -
27/10:30pm 9.1 NW 3 3 1014.7 - 0.0 - - 0.3 - - - -
27/10:00pm 10.3 CALM 0 0 1014.8 - 0.0 - - 0.2 - - - -
27/09:31pm 11.2 NW 3 4 1015.3 - 0.0 - - 4 - - - -
27/09:30pm 11.6 NW 3 4 1015.3 - 0.0 - - 10 - - - -
27/09:00pm 11.9 WNW 2 5 1015.5 - 0.0 - - 10 - - - -
27/08:30pm 13.9 N 7 11 1015.5 - 0.0 - - 10 - - - -
27/08:00pm 11.9 NNE 6 7 1015.7 - 0.0 - - 10 - - - -
27/07:30pm 13.1 N 6 9 1015.9 - 0.0 - - 10 - - - -
27/07:00pm 14.7 N 7 9 1015.9 - 0.0 - - 10 - - - -
27/06:30pm 14.7 N 6 8 1016.1 - 0.0 - - 10 - - - -
27/06:00pm 15.3 N 7 10 1016.0 - 0.0 - - 10 - - - -
27/05:30pm 15.6 N 7 10 1016.1 - 0.0 - - 10 - - - -
27/05:00pm 15.9 N 7 10 1016.0 - 0.0 - - 10 - - - -
27/04:30pm 16.2 N 8 10 1016.0 - 0.0 - - 10 - - - -
27/04:00pm 17.5 NNE 12 15 1016.2 - 0.0 - - 10 - - - -
27/03:30pm 17.9 NNE 11 15 1016.4 - 0.0 - - 10 - - - -
27/03:00pm 18.2 NNE 13 16 1016.2 - 0.0 - - 10 - - - -
27/02:30pm 18.7 NE 11 14 1016.5 - 0.0 - - 10 - - - -
27/02:00pm 18.2 NE 11 13 1016.9 - 0.0 - - 10 - - - -
27/01:30pm 18.4 NE 10 12 1017.4 - 0.0 - Partly cloudy 10 - - - -
27/01:00pm 18.5 NE 10 12 1018.0 - 0.0 - Partly cloudy 10 - - - -
27/12:30pm 18.6 NNE 9 11 1018.4 - 0.0 - - 10 - - - -
27/12:00pm 18.4 NNE 8 13 1019.0 - 0.0 - - 10 - - - -
27/11:30am 19.0 NNE 8 11 1019.6 - 0.0 - - 10 - - - -
27/11:00am 16.9 E 4 5 1020.3 - 0.0 - - 10 - - - -
27/10:30am 16.7 NE 3 5 1020.9 - 0.0 - - 10 - - - -
27/10:00am 15.2 W 1 4 1021.3 - 0.0 - - 10 - - - -
27/09:30am 12.9 CALM 0 0 1021.4 - 0.0 - - 10 - - - -
27/09:00am 10.5 CALM 0 0 1021.6 - 0.0 - Mostly clear 10 - - - -

Other Formats:

Comma delimited format used in spreadsheet applications
http://www.bom.gov.au/fwo/IDN60701/IDN60701.95937.axf

JavaScript Object Notation format (JSON) in row-major order
http://www.bom.gov.au/fwo/IDN60701/IDN60701.95937.json